Time;durP1;ratioP1;P1;durP2;ratioP2;P2;SDS_P1;SDS_P2;PMS_P1;PMS_P2;Temp;Humidity;BMP_temperature;BMP_pressure;BME280_temperature;BME280_humidity;BME280_pressure;Samples;Min_cycle;Max_cycle;Signal;HPM_P1;HPM_P2
2022/08/02 00:02:06;;;;;;;2.38;1.70;;;17.90;97.10;;;;;;5031181;28;20669;-89
2022/08/02 00:04:33;;;;;;;1.90;1.70;;;17.90;97.30;;;;;;5028784;28;20206;-90
2022/08/02 00:07:01;;;;;;;1.80;1.70;;;17.80;96.50;;;;;;5027910;28;20202;-90
2022/08/02 00:09:28;;;;;;;1.80;1.70;;;17.90;96.70;;;;;;5033778;28;20205;-89
2022/08/02 00:11:55;;;;;;;1.70;1.60;;;17.90;96.90;;;;;;5037327;28;20203;-89
2022/08/02 00:14:22;;;;;;;1.65;1.55;;;17.90;96.80;;;;;;5032304;28;20650;-90
2022/08/02 00:16:49;;;;;;;1.58;1.48;;;17.90;96.50;;;;;;5036278;28;20210;-89
2022/08/02 00:19:16;;;;;;;1.85;1.30;;;17.90;96.50;;;;;;5037240;28;20212;-88
2022/08/02 00:21:42;;;;;;;2.15;1.80;;;18.00;96.40;;;;;;5037884;28;20205;-90
2022/08/02 00:24:11;;;;;;;1.60;1.50;;;18.00;95.30;;;;;;5033885;28;20238;-89
2022/08/02 00:26:38;;;;;;;2.03;1.50;;;18.10;95.30;;;;;;5043690;28;20201;-88
2022/08/02 00:29:05;;;;;;;1.95;1.40;;;18.10;94.70;;;;;;5030878;28;20247;-89
2022/08/02 00:31:32;;;;;;;1.70;1.50;;;18.10;94.70;;;;;;5033189;28;20233;-89
2022/08/02 00:33:59;;;;;;;2.20;1.70;;;18.10;95.20;;;;;;5030799;28;20198;-92
2022/08/02 00:36:26;;;;;;;1.83;1.70;;;18.10;94.40;;;;;;5034982;28;20769;-88
2022/08/02 00:38:52;;;;;;;1.30;1.20;;;18.10;94.50;;;;;;5039101;28;20214;-88
2022/08/02 00:41:22;;;;;;;1.38;1.27;;;18.10;94.30;;;;;;5033512;28;20199;-89
2022/08/02 00:43:50;;;;;;;1.73;1.20;;;18.10;94.60;;;;;;5025953;28;20209;-90
2022/08/02 00:46:18;;;;;;;1.52;1.40;;;18.20;94.60;;;;;;5028223;28;20203;-89
2022/08/02 00:48:45;;;;;;;2.28;1.50;;;18.20;94.60;;;;;;5030815;28;20216;-89
2022/08/02 00:51:13;;;;;;;2.28;1.75;;;18.20;94.60;;;;;;5028285;28;20222;-89
2022/08/02 00:53:40;;;;;;;1.65;1.52;;;18.10;95.40;;;;;;5031250;28;20206;-89
2022/08/02 00:56:07;;;;;;;3.20;1.67;;;18.10;95.20;;;;;;5024916;28;20219;-88
2022/08/02 00:58:35;;;;;;;1.70;1.58;;;18.00;95.40;;;;;;5031281;28;20207;-89
2022/08/02 01:01:02;;;;;;;2.90;1.80;;;18.10;95.50;;;;;;5033729;28;20214;-89
2022/08/02 01:03:29;;;;;;;2.15;1.67;;;18.00;95.50;;;;;;5033528;28;20281;-89
2022/08/02 01:05:56;;;;;;;1.90;1.50;;;18.00;95.80;;;;;;5032213;28;20211;-90
2022/08/02 01:08:22;;;;;;;1.67;1.58;;;17.90;96.00;;;;;;5026932;28;20659;-89
2022/08/02 01:10:49;;;;;;;3.17;2.00;;;18.00;95.60;;;;;;5024868;28;20230;-89
2022/08/02 01:13:16;;;;;;;1.67;1.58;;;18.00;96.30;;;;;;5027280;28;20213;-89
2022/08/02 01:15:54;;;;;;;2.42;1.50;;;18.00;95.90;;;;;;5029600;28;20217;-88
2022/08/02 01:18:27;;;;;;;1.70;1.60;;;18.00;96.30;;;;;;5025368;28;20658;-89
2022/08/02 01:21:16;;;;;;;2.95;1.67;;;17.90;96.30;;;;;;5030205;28;20646;-89
2022/08/02 01:23:59;;;;;;;2.40;2.20;;;17.90;96.50;;;;;;5028885;28;20209;-90
2022/08/02 01:26:38;;;;;;;2.28;1.67;;;17.90;96.40;;;;;;5033301;28;20233;-88
2022/08/02 01:29:11;;;;;;;2.83;1.80;;;17.90;96.60;;;;;;5034559;28;20210;-89
2022/08/02 01:31:42;;;;;;;2.08;1.85;;;17.90;96.90;;;;;;5033667;28;20226;-88
2022/08/02 01:34:16;;;;;;;2.05;1.90;;;17.80;96.90;;;;;;5033704;28;20219;-89
2022/08/02 01:36:46;;;;;;;1.75;1.65;;;17.80;97.00;;;;;;5034671;28;20297;-88
2022/08/02 01:39:21;;;;;;;2.53;2.10;;;17.80;96.90;;;;;;5033707;28;20288;-89
2022/08/02 01:41:49;;;;;;;3.92;2.00;;;17.70;97.50;;;;;;5029359;28;20214;-88
2022/08/02 01:44:18;;;;;;;1.77;1.67;;;17.70;97.60;;;;;;5033501;28;20215;-88
2022/08/02 01:46:46;;;;;;;1.95;1.80;;;17.70;97.40;;;;;;5034341;28;20218;-89
2022/08/02 01:49:18;;;;;;;3.40;1.77;;;17.60;97.50;;;;;;5032426;28;20203;-89
2022/08/02 01:54:34;;;;;;;1.90;1.80;;;17.50;97.50;;;;;;5034904;28;20348;-89
2022/08/02 01:57:05;;;;;;;2.58;1.90;;;17.50;97.50;;;;;;5038579;28;20210;-89
2022/08/02 01:59:35;;;;;;;2.58;2.20;;;17.50;97.50;;;;;;5031186;28;20286;-89
2022/08/02 02:02:02;;;;;;;2.08;1.92;;;17.50;97.50;;;;;;5037335;28;20245;-89
2022/08/02 02:04:33;;;;;;;2.25;1.90;;;17.50;97.50;;;;;;5031893;28;20203;-88
2022/08/02 02:07:01;;;;;;;2.45;1.90;;;17.50;97.40;;;;;;5036758;28;20681;-88
2022/08/02 02:09:35;;;;;;;1.88;1.77;;;17.50;97.50;;;;;;5037516;28;20202;-88
2022/08/02 02:12:04;;;;;;;2.05;1.83;;;17.40;97.50;;;;;;5032358;28;20226;-88
2022/08/02 02:14:33;;;;;;;2.72;2.20;;;17.40;97.50;;;;;;5029485;28;20218;-89
2022/08/02 02:17:01;;;;;;;2.10;1.90;;;17.40;97.50;;;;;;5034964;28;20207;-89
2022/08/02 02:19:29;;;;;;;2.35;1.90;;;17.40;97.50;;;;;;5034960;28;20241;-88
2022/08/02 02:21:57;;;;;;;2.90;1.90;;;17.30;97.40;;;;;;5039838;28;20212;-89
2022/08/02 02:24:24;;;;;;;2.22;1.70;;;17.30;97.40;;;;;;5037432;28;20212;-89
2022/08/02 02:26:51;;;;;;;3.03;1.88;;;17.30;97.40;;;;;;5041723;28;20219;-88
2022/08/02 02:29:22;;;;;;;2.42;2.00;;;17.30;97.40;;;;;;5035033;28;20206;-88
2022/08/02 02:31:54;;;;;;;2.05;1.80;;;17.30;97.40;;;;;;5044817;28;20246;-88
2022/08/02 02:34:27;;;;;;;1.90;1.80;;;17.40;97.60;;;;;;5040856;28;20211;-88
2022/08/02 02:36:56;;;;;;;2.53;2.03;;;17.50;97.50;;;;;;5037135;28;20234;-89
2022/08/02 02:39:25;;;;;;;2.97;1.95;;;17.50;97.50;;;;;;5039198;28;20654;-88
2022/08/02 02:41:54;;;;;;;2.13;2.00;;;17.50;97.50;;;;;;5039032;28;20214;-89
2022/08/02 02:44:22;;;;;;;2.85;2.28;;;17.50;97.80;;;;;;5029106;28;20203;-89
2022/08/02 02:46:54;;;;;;;3.50;2.35;;;17.50;97.50;;;;;;5036316;28;20217;-89
2022/08/02 02:49:30;;;;;;;2.40;2.20;;;17.50;97.50;;;;;;5029019;28;20203;-89
2022/08/02 02:51:58;;;;;;;2.45;2.25;;;17.60;97.50;;;;;;5027683;28;20231;-89
2022/08/02 02:54:26;;;;;;;2.50;2.30;;;17.60;97.50;;;;;;5027608;28;20597;-90
2022/08/02 02:56:53;;;;;;;2.42;2.22;;;17.50;97.50;;;;;;5033389;28;20779;-89
2022/08/02 02:59:20;;;;;;;2.30;2.10;;;17.50;97.50;;;;;;5034120;28;20202;-89
2022/08/02 03:01:47;;;;;;;2.45;2.20;;;17.50;97.70;;;;;;5036040;28;20195;-89
2022/08/02 03:04:17;;;;;;;3.00;2.20;;;17.50;97.50;;;;;;5031678;28;20205;-89
2022/08/02 03:06:43;;;;;;;2.47;2.28;;;17.60;97.50;;;;;;5033354;28;20281;-88
2022/08/02 03:09:10;;;;;;;2.65;2.08;;;17.60;97.50;;;;;;5036275;28;20206;-89
2022/08/02 03:11:38;;;;;;;2.95;2.20;;;17.70;97.50;;;;;;5036248;28;20230;-89
2022/08/02 03:14:09;;;;;;;2.20;2.00;;;17.70;97.50;;;;;;5034090;28;20222;-88
2022/08/02 03:16:43;;;;;;;3.05;2.03;;;17.70;97.40;;;;;;5035368;28;20612;-88
2022/08/02 03:19:10;;;;;;;2.25;2.05;;;17.70;97.20;;;;;;5031314;28;20257;-88
2022/08/02 03:21:38;;;;;;;2.88;2.15;;;17.70;96.80;;;;;;5033541;28;20567;-89
2022/08/02 03:24:06;;;;;;;2.65;2.20;;;17.70;97.00;;;;;;5031414;28;20209;-89
2022/08/02 03:26:33;;;;;;;2.30;2.13;;;17.60;97.10;;;;;;5032611;28;20229;-89
2022/08/02 03:29:00;;;;;;;3.90;2.42;;;17.50;97.20;;;;;;5028603;28;20214;-89
2022/08/02 03:31:26;;;;;;;2.65;2.42;;;17.40;97.50;;;;;;5035749;28;20686;-88
2022/08/02 03:33:54;;;;;;;1.90;1.80;;;17.30;97.70;;;;;;5023896;28;20210;-89
2022/08/02 03:36:23;;;;;;;4.07;2.10;;;17.30;97.90;;;;;;5028546;28;20582;-89
2022/08/02 03:38:53;;;;;;;2.95;2.40;;;17.30;97.90;;;;;;5032554;28;20229;-89
2022/08/02 03:41:21;;;;;;;3.55;2.50;;;17.20;98.30;;;;;;5031274;28;20206;-89
2022/08/02 03:43:50;;;;;;;2.50;2.10;;;17.30;98.10;;;;;;5024908;28;20219;-89
2022/08/02 03:46:21;;;;;;;2.38;2.17;;;17.50;97.50;;;;;;5025967;28;20211;-88
2022/08/02 03:48:49;;;;;;;2.45;2.25;;;17.40;97.50;;;;;;5028525;28;20203;-88
2022/08/02 03:51:16;;;;;;;2.20;2.00;;;17.40;97.50;;;;;;5032913;28;20229;-89
2022/08/02 03:53:43;;;;;;;2.58;2.05;;;17.40;97.50;;;;;;5029524;28;20206;-89
2022/08/02 03:56:12;;;;;;;2.30;2.00;;;17.40;97.50;;;;;;5029609;28;20642;-89
2022/08/02 03:58:42;;;;;;;2.63;2.25;;;17.40;97.50;;;;;;5032026;28;20251;-88
2022/08/02 04:01:09;;;;;;;2.40;2.20;;;17.30;97.40;;;;;;5032877;28;20206;-88
2022/08/02 04:03:36;;;;;;;2.17;2.08;;;17.30;97.50;;;;;;5032904;28;20198;-88
2022/08/02 04:06:02;;;;;;;2.67;2.10;;;17.30;97.90;;;;;;5027423;28;20240;-88
2022/08/02 04:08:29;;;;;;;3.95;3.00;;;17.40;97.50;;;;;;5033067;28;20206;-89
2022/08/02 04:13:44;;;;;;;2.85;2.55;;;17.50;97.50;;;;;;4999248;28;20206;-88
2022/08/02 04:16:15;;;;;;;2.50;2.30;;;17.40;97.50;;;;;;4998692;28;20223;-88
2022/08/02 04:18:49;;;;;;;2.42;2.22;;;17.30;98.10;;;;;;4997337;28;20211;-89
2022/08/02 04:21:20;;;;;;;2.28;2.08;;;17.30;98.30;;;;;;4996871;28;20231;-89
2022/08/02 04:23:50;;;;;;;2.30;2.10;;;17.30;98.00;;;;;;5007676;28;20218;-88
2022/08/02 04:26:18;;;;;;;2.83;2.20;;;17.40;97.80;;;;;;5007955;28;20211;-88
2022/08/02 04:28:47;;;;;;;3.70;2.25;;;17.30;98.00;;;;;;5006714;28;20226;-87
2022/08/02 04:31:15;;;;;;;3.20;2.20;;;17.30;98.20;;;;;;5009468;28;20223;-88
2022/08/02 04:33:43;;;;;;;4.03;2.42;;;17.20;98.60;;;;;;5001414;28;20677;-89
2022/08/02 04:36:13;;;;;;;3.88;2.40;;;17.30;98.70;;;;;;5003327;28;20318;-89
2022/08/02 04:38:40;;;;;;;2.55;2.30;;;17.30;98.70;;;;;;5004787;28;20291;-89
2022/08/02 04:41:06;;;;;;;2.97;2.35;;;17.30;98.70;;;;;;5009204;28;20241;-89
2022/08/02 04:43:33;;;;;;;2.75;2.55;;;17.30;98.60;;;;;;5008971;28;20199;-89
2022/08/02 04:46:02;;;;;;;3.35;2.33;;;17.30;98.70;;;;;;5008172;28;20204;-89
2022/08/02 04:48:30;;;;;;;4.07;2.22;;;17.40;98.60;;;;;;5009138;28;20659;-88
2022/08/02 04:50:57;;;;;;;2.45;2.10;;;17.40;98.00;;;;;;5020438;28;20227;-89
2022/08/02 04:53:23;;;;;;;3.85;2.20;;;17.50;97.90;;;;;;5032389;28;20206;-89
2022/08/02 04:55:50;;;;;;;2.70;2.20;;;17.50;98.00;;;;;;5033967;28;20202;-89
2022/08/02 04:58:17;;;;;;;2.70;2.40;;;17.50;97.90;;;;;;5030049;28;20211;-89
2022/08/02 05:00:44;;;;;;;3.65;2.08;;;17.50;97.60;;;;;;5032026;28;20553;-89
2022/08/02 05:03:13;;;;;;;2.75;2.08;;;17.50;97.50;;;;;;5034822;28;20218;-88
2022/08/02 05:05:40;;;;;;;4.43;2.50;;;17.50;97.70;;;;;;5036806;28;20286;-89
2022/08/02 05:08:12;;;;;;;2.67;2.45;;;17.50;97.50;;;;;;5032537;28;20211;-89
2022/08/02 05:10:39;;;;;;;2.83;2.28;;;17.40;97.50;;;;;;5034388;28;20550;-89
2022/08/02 05:13:06;;;;;;;2.45;2.25;;;17.40;97.70;;;;;;5035107;28;20230;-89
2022/08/02 05:15:32;;;;;;;2.40;2.17;;;17.50;97.80;;;;;;5034565;28;20571;-89
2022/08/02 05:18:00;;;;;;;2.72;2.13;;;17.70;97.50;;;;;;5035233;28;20206;-89
2022/08/02 05:20:28;;;;;;;2.65;2.33;;;17.80;97.40;;;;;;5034006;28;20256;-89
2022/08/02 05:22:55;;;;;;;2.33;2.13;;;17.90;97.20;;;;;;5035266;28;20213;-88
2022/08/02 05:25:21;;;;;;;2.67;2.40;;;18.00;97.10;;;;;;5033133;28;20214;-89
2022/08/02 05:27:48;;;;;;;2.50;2.30;;;17.90;97.20;;;;;;5035533;28;20657;-89
2022/08/02 05:30:15;;;;;;;2.42;2.22;;;17.90;97.60;;;;;;5034429;28;20212;-88
2022/08/02 05:32:47;;;;;;;2.30;2.10;;;18.20;96.90;;;;;;5032803;28;20234;-89
2022/08/02 05:35:17;;;;;;;3.38;2.20;;;18.30;96.40;;;;;;5041093;28;20293;-88
2022/08/02 05:37:45;;;;;;;2.30;2.15;;;18.40;95.80;;;;;;5038334;28;20240;-89
2022/08/02 05:40:12;;;;;;;2.20;2.00;;;18.40;95.60;;;;;;5035367;28;20212;-88
2022/08/02 05:42:39;;;;;;;3.45;2.20;;;18.50;95.10;;;;;;5035492;28;20210;-89
2022/08/02 05:45:07;;;;;;;2.55;2.35;;;18.50;95.00;;;;;;5033365;28;20217;-88
2022/08/02 05:47:34;;;;;;;6.07;2.50;;;18.50;95.20;;;;;;5036239;28;20234;-88
2022/08/02 05:50:01;;;;;;;3.70;2.15;;;18.50;95.40;;;;;;5035105;28;20217;-89
2022/08/02 05:52:41;;;;;;;4.32;2.55;;;18.40;95.20;;;;;;5035790;28;20229;-89
2022/08/02 05:55:13;;;;;;;2.47;2.15;;;18.40;94.90;;;;;;5032684;28;20271;-88
2022/08/02 05:57:48;;;;;;;2.13;2.00;;;18.60;95.20;;;;;;5035430;28;20203;-89
2022/08/02 06:00:16;;;;;;;3.55;1.95;;;19.20;93.90;;;;;;5034370;28;20203;-89
2022/08/02 06:03:07;;;;;;;2.25;1.85;;;19.70;92.20;;;;;;5040260;28;20217;-90
2022/08/02 06:05:58;;;;;;;2.80;2.15;;;19.90;89.00;;;;;;5039210;28;20203;-86
2022/08/02 06:08:32;;;;;;;2.85;2.08;;;20.00;88.90;;;;;;5041410;28;20198;-86
2022/08/02 06:11:02;;;;;;;3.10;2.20;;;20.30;87.90;;;;;;5044364;28;20241;-86
2022/08/02 06:13:29;;;;;;;3.72;3.08;;;20.40;86.90;;;;;;5044614;28;20276;-87
2022/08/02 06:15:58;;;;;;;4.32;2.20;;;20.50;86.30;;;;;;5040129;28;20211;-87
2022/08/02 06:18:26;;;;;;;2.33;2.13;;;20.40;86.60;;;;;;5039447;28;20275;-87
2022/08/02 06:21:15;;;;;;;2.33;2.13;;;20.40;85.50;;;;;;5038476;28;20679;-87
2022/08/02 06:23:44;;;;;;;3.28;2.13;;;20.40;82.70;;;;;;5041132;28;20207;-88
2022/08/02 06:26:15;;;;;;;2.70;2.10;;;20.40;82.40;;;;;;5042974;28;20208;-86
2022/08/02 06:28:42;;;;;;;4.32;2.10;;;20.20;83.00;;;;;;5044990;28;20654;-86
2022/08/02 06:31:09;;;;;;;2.35;2.10;;;20.10;85.10;;;;;;5044934;28;20206;-86
2022/08/02 06:33:42;;;;;;;3.63;2.10;;;20.10;85.70;;;;;;5045342;28;20244;-85
2022/08/02 06:36:19;;;;;;;3.20;1.95;;;20.10;85.60;;;;;;5045258;28;20214;-86
2022/08/02 06:38:55;;;;;;;3.30;2.17;;;20.10;85.40;;;;;;5043000;28;20202;-85
2022/08/02 06:41:48;;;;;;;2.58;1.90;;;20.10;84.60;;;;;;5044313;28;20651;-84
2022/08/02 06:44:18;;;;;;;3.60;1.88;;;20.30;83.50;;;;;;5043091;28;20279;-86
2022/08/02 06:46:45;;;;;;;1.80;1.70;;;20.60;82.10;;;;;;5047616;28;20266;-86
2022/08/02 06:49:12;;;;;;;4.30;1.98;;;20.90;76.60;;;;;;5044764;28;20210;-83
2022/08/02 06:51:42;;;;;;;2.38;1.77;;;21.10;75.00;;;;;;5037780;28;20584;-84
2022/08/02 06:54:09;;;;;;;2.42;1.95;;;21.00;73.30;;;;;;5040101;28;20209;-82
2022/08/02 06:56:36;;;;;;;3.45;2.10;;;21.00;75.00;;;;;;5042253;28;20610;-83
2022/08/02 06:59:04;;;;;;;2.00;1.90;;;21.00;75.80;;;;;;5050927;28;20194;-82
2022/08/02 07:02:12;;;;;;;1.92;1.73;;;21.10;75.30;;;;;;5039081;28;20679;-83
2022/08/02 07:04:42;;;;;;;2.90;2.20;;;21.30;72.30;;;;;;5043461;28;20206;-82
2022/08/02 07:07:18;;;;;;;2.13;1.90;;;21.40;70.40;;;;;;5043163;28;20202;-82
2022/08/02 07:09:45;;;;;;;1.80;1.70;;;21.50;70.30;;;;;;5046259;28;20207;-81
2022/08/02 07:12:12;;;;;;;2.70;1.70;;;21.60;69.60;;;;;;5044200;28;20229;-83
2022/08/02 07:14:40;;;;;;;2.30;2.10;;;21.70;70.30;;;;;;5042754;28;20191;-83
2022/08/02 07:17:13;;;;;;;2.03;1.80;;;21.80;63.20;;;;;;5041947;28;20253;-83
2022/08/02 07:19:48;;;;;;;3.75;1.85;;;21.90;62.70;;;;;;5042484;28;20234;-84
2022/08/02 07:22:21;;;;;;;2.45;2.00;;;22.00;62.40;;;;;;5036485;28;20565;-84
2022/08/02 07:24:48;;;;;;;2.85;1.90;;;21.90;63.30;;;;;;5031268;28;20689;-87
2022/08/02 07:27:15;;;;;;;2.83;1.70;;;21.80;65.50;;;;;;5029244;28;20718;-87
2022/08/02 07:29:43;;;;;;;1.65;1.52;;;21.80;67.60;;;;;;5030018;28;20221;-87
2022/08/02 07:32:10;;;;;;;2.05;1.85;;;21.90;63.40;;;;;;5028671;28;20258;-87
2022/08/02 07:34:48;;;;;;;2.33;1.70;;;22.20;65.70;;;;;;5034779;28;20203;-95
2022/08/02 07:37:26;;;;;;;8.18;7.40;;;22.40;62.90;;;;;;5034766;28;20210;-86
2022/08/02 07:39:53;;;;;;;3.70;2.08;;;22.40;58.10;;;;;;5037718;28;20198;-87
2022/08/02 07:42:19;;;;;;;3.08;1.90;;;22.40;60.60;;;;;;5036013;28;20211;-87
2022/08/02 07:44:48;;;;;;;1.80;1.70;;;22.40;61.00;;;;;;5035023;28;20214;-86
2022/08/02 07:47:15;;;;;;;2.00;1.67;;;22.40;60.30;;;;;;5036450;28;20210;-86
2022/08/02 07:49:42;;;;;;;6.28;1.77;;;22.30;62.10;;;;;;5027733;28;20280;-84
2022/08/02 07:52:09;;;;;;;2.13;1.83;;;22.30;65.50;;;;;;5037934;28;20598;-85
2022/08/02 07:54:36;;;;;;;5.57;2.15;;;22.30;64.60;;;;;;5031898;28;20205;-87
2022/08/02 07:57:04;;;;;;;2.15;1.85;;;22.50;58.20;;;;;;5034436;28;20207;-87
2022/08/02 07:59:30;;;;;;;2.90;1.90;;;22.60;56.10;;;;;;5035010;28;20198;-87
2022/08/02 08:01:59;;;;;;;5.53;1.70;;;22.50;58.20;;;;;;5030727;28;20195;-87
2022/08/02 08:04:26;;;;;;;2.88;1.80;;;22.40;53.40;;;;;;5032620;28;20201;-86
2022/08/02 08:06:54;;;;;;;2.50;1.75;;;22.30;52.90;;;;;;5031831;28;20206;-86
2022/08/02 08:09:21;;;;;;;1.85;1.67;;;22.40;54.40;;;;;;5036459;28;20238;-83
2022/08/02 08:11:48;;;;;;;1.88;1.75;;;22.40;55.00;;;;;;5035272;28;20693;-85
2022/08/02 08:14:18;;;;;;;3.03;1.70;;;22.40;53.40;;;;;;5035835;28;20578;-87
2022/08/02 08:16:48;;;;;;;2.35;2.00;;;22.50;53.70;;;;;;5024938;28;20206;-86
2022/08/02 08:19:16;;;;;;;2.92;2.00;;;22.50;56.90;;;;;;5036139;28;20217;-86
2022/08/02 08:21:43;;;;;;;1.83;1.70;;;22.50;55.80;;;;;;5032794;28;20208;-86
2022/08/02 08:24:10;;;;;;;2.67;1.83;;;22.50;55.30;;;;;;5033821;28;20292;-87
2022/08/02 08:26:38;;;;;;;4.10;1.98;;;22.60;54.60;;;;;;5033235;28;20293;-86
2022/08/02 08:29:06;;;;;;;1.63;1.50;;;22.90;51.50;;;;;;5033265;28;20207;-86
2022/08/02 08:31:36;;;;;;;3.05;1.65;;;23.00;51.90;;;;;;5032129;28;20742;-87
2022/08/02 08:34:06;;;;;;;1.83;1.73;;;23.20;46.70;;;;;;5032363;28;20305;-87
2022/08/02 08:36:34;;;;;;;1.95;1.85;;;23.40;46.90;;;;;;5036125;28;20581;-86
2022/08/02 08:39:02;;;;;;;3.10;1.60;;;23.50;46.90;;;;;;5035985;28;20289;-87
2022/08/02 08:41:28;;;;;;;1.77;1.65;;;23.60;48.10;;;;;;5038500;28;20600;-83
2022/08/02 08:43:55;;;;;;;1.75;1.60;;;23.80;47.20;;;;;;5041277;28;20697;-83
2022/08/02 08:46:26;;;;;;;1.92;1.83;;;23.80;42.60;;;;;;5041112;28;20282;-83
2022/08/02 08:48:59;;;;;;;1.98;1.58;;;23.80;40.30;;;;;;5037483;28;20716;-84
2022/08/02 08:51:30;;;;;;;2.67;1.80;;;24.10;38.50;;;;;;5051248;28;20195;-82
2022/08/02 08:54:02;;;;;;;1.92;1.73;;;24.60;38.50;;;;;;5039996;28;20237;-83
2022/08/02 08:56:34;;;;;;;2.30;1.83;;;25.20;36.30;;;;;;5040294;28;20233;-83
2022/08/02 08:59:02;;;;;;;2.95;1.70;;;25.90;30.90;;;;;;5040036;28;20202;-84
2022/08/02 09:01:29;;;;;;;1.80;1.70;;;27.70;25.60;;;;;;5036931;28;20210;-85
2022/08/02 09:03:56;;;;;;;2.63;1.90;;;29.20;22.50;;;;;;5029479;28;20564;-88
2022/08/02 09:06:23;;;;;;;2.28;2.00;;;31.00;17.10;;;;;;5035555;28;20672;-88
2022/08/02 09:08:50;;;;;;;3.20;2.03;;;31.90;15.50;;;;;;5036403;28;20582;-85
2022/08/02 09:11:22;;;;;;;2.00;1.90;;;32.00;14.70;;;;;;5034944;28;20206;-86
2022/08/02 09:13:51;;;;;;;3.05;2.50;;;33.00;13.40;;;;;;5040711;28;20599;-85
2022/08/02 09:16:29;;;;;;;2.38;2.17;;;33.30;12.00;;;;;;5046288;28;20194;-85
2022/08/02 09:18:56;;;;;;;3.35;2.25;;;34.40;10.40;;;;;;5046186;28;20250;-86
2022/08/02 09:21:24;;;;;;;2.47;2.38;;;33.60;10.40;;;;;;5044036;28;20273;-85
2022/08/02 09:23:54;;;;;;;2.72;2.53;;;33.40;11.60;;;;;;5054485;28;20197;-85
2022/08/02 09:26:23;;;;;;;3.55;2.53;;;33.50;10.70;;;;;;5047957;28;20206;-86
2022/08/02 09:28:52;;;;;;;2.90;2.70;;;33.20;10.70;;;;;;5041672;28;20201;-86
2022/08/02 09:31:21;;;;;;;2.72;2.53;;;33.90;9.80;;;;;;5042603;28;20206;-85
2022/08/02 09:33:53;;;;;;;2.40;2.28;;;34.50;9.30;;;;;;5044415;28;20236;-85
2022/08/02 09:36:21;;;;;;;2.65;2.45;;;34.00;9.30;;;;;;5035379;28;20239;-85
2022/08/02 09:38:56;;;;;;;2.58;2.38;;;32.80;11.20;;;;;;5020280;28;20230;-86
2022/08/02 09:41:26;;;;;;;2.53;2.25;;;31.30;14.00;;;;;;5034706;28;20204;-86
2022/08/02 09:43:55;;;;;;;1.95;1.85;;;30.90;15.10;;;;;;5020963;28;20237;-86
2022/08/02 09:46:26;;;;;;;2.25;2.05;;;30.50;15.40;;;;;;5031162;28;20198;-85
2022/08/02 09:48:54;;;;;;;2.63;1.95;;;29.60;16.40;;;;;;5035339;28;20202;-86
2022/08/02 09:51:26;;;;;;;4.55;2.30;;;30.20;16.80;;;;;;5034740;28;20665;-86
2022/08/02 09:53:55;;;;;;;2.50;2.30;;;31.50;15.60;;;;;;5041326;28;20232;-85
2022/08/02 09:56:23;;;;;;;3.97;2.40;;;32.40;15.10;;;;;;5041070;28;20209;-85
2022/08/02 09:58:53;;;;;;;2.45;2.35;;;32.20;13.60;;;;;;5043653;28;20250;-85
2022/08/02 10:01:21;;;;;;;2.97;2.55;;;32.70;13.40;;;;;;5044808;28;20204;-85
2022/08/02 10:03:55;;;;;;;3.20;2.47;;;32.10;14.30;;;;;;5038716;28;20221;-85
2022/08/02 10:06:23;;;;;;;2.50;2.40;;;31.50;15.60;;;;;;5039133;28;20206;-85
2022/08/02 10:08:52;;;;;;;2.80;2.60;;;31.00;17.10;;;;;;5040707;28;20273;-86
2022/08/02 10:11:19;;;;;;;2.45;2.35;;;30.90;17.90;;;;;;5043438;28;20559;-85
2022/08/02 10:13:46;;;;;;;2.60;2.40;;;31.30;13.90;;;;;;5044445;28;20697;-85
2022/08/02 10:16:16;;;;;;;4.70;2.70;;;32.20;13.00;;;;;;5042819;28;20206;-85
2022/08/02 10:18:44;;;;;;;3.10;2.90;;;34.10;9.00;;;;;;5042498;28;20202;-85
2022/08/02 10:21:14;;;;;;;4.55;2.72;;;33.60;11.00;;;;;;5041739;28;20248;-86
2022/08/02 10:23:45;;;;;;;3.20;3.00;;;33.00;13.00;;;;;;5041978;28;20214;-86
2022/08/02 10:26:20;;;;;;;3.28;3.00;;;32.50;13.00;;;;;;5043977;28;20209;-86
2022/08/02 10:28:49;;;;;;;3.13;2.92;;;32.70;13.70;;;;;;5042536;28;20205;-85
2022/08/02 10:31:22;;;;;;;3.42;3.13;;;33.40;10.70;;;;;;5039635;28;20198;-85
2022/08/02 10:33:51;;;;;;;3.35;2.90;;;34.00;9.60;;;;;;5046916;28;20225;-86
2022/08/02 10:36:19;;;;;;;3.15;2.70;;;34.00;9.00;;;;;;5042229;28;20202;-88
2022/08/02 10:38:48;;;;;;;2.67;2.47;;;34.10;9.20;;;;;;5044042;28;20229;-85
2022/08/02 10:41:35;;;;;;;2.67;2.47;;;33.10;10.70;;;;;;5040626;28;20233;-86
2022/08/02 10:44:02;;;;;;;7.25;2.50;;;31.70;12.90;;;;;;5021338;28;20205;-85
2022/08/02 10:46:38;;;;;;;2.22;2.13;;;30.40;15.70;;;;;;5032919;28;20202;-86
2022/08/02 10:49:08;;;;;;;2.17;2.08;;;30.10;16.70;;;;;;5033943;28;20269;-85
2022/08/02 10:52:11;;;;;;;3.92;2.30;;;30.40;16.80;;;;;;5034024;28;20209;-85
2022/08/02 10:54:39;;;;;;;2.10;2.00;;;31.00;17.20;;;;;;4960525;28;20225;-86
2022/08/02 10:57:17;;;;;;;2.40;2.20;;;31.60;14.60;;;;;;4962278;28;20227;-85
2022/08/02 10:59:45;;;;;;;2.58;2.30;;;32.00;14.40;;;;;;4957712;28;20701;-86
2022/08/02 11:02:14;;;;;;;2.13;2.03;;;31.60;13.70;;;;;;4971875;28;20660;-86
2022/08/02 11:05:03;;;;;;;2.63;2.20;;;30.80;14.30;;;;;;4972204;28;20203;-86
2022/08/02 11:07:38;;;;;;;1.90;1.70;;;29.60;16.40;;;;;;4970792;28;20212;-86
2022/08/02 11:10:31;;;;;;;2.78;1.80;;;29.00;20.30;;;;;;4962715;28;20199;-85
2022/08/02 11:13:04;;;;;;;4.80;4.13;;;29.80;16.50;;;;;;4973245;28;20228;-85
2022/08/02 11:15:47;;;;;;;2.40;1.90;;;30.40;15.60;;;;;;4974494;28;20201;-84
2022/08/02 11:18:16;;;;;;;3.22;1.80;;;30.30;16.80;;;;;;4981020;28;20235;-84
2022/08/02 11:20:43;;;;;;;2.35;2.00;;;29.90;16.60;;;;;;4983947;28;20204;-85
2022/08/02 11:23:38;;;;;;;2.00;1.80;;;29.90;16.60;;;;;;4963818;28;20648;-84
2022/08/02 11:26:44;;;;;;;1.77;1.67;;;29.60;19.50;;;;;;4977392;28;20659;-84
2022/08/02 11:29:11;;;;;;;2.90;1.90;;;28.50;18.40;;;;;;4975622;28;20200;-84
2022/08/02 11:31:40;;;;;;;1.80;1.70;;;27.90;21.20;;;;;;5009231;28;20313;-84
2022/08/02 11:34:15;;;;;;;1.80;1.70;;;27.80;19.60;;;;;;5033354;28;20222;-83
2022/08/02 11:36:47;;;;;;;3.00;1.80;;;28.30;18.80;;;;;;5038191;28;20221;-84
2022/08/02 11:39:17;;;;;;;1.60;1.50;;;28.60;18.10;;;;;;5022353;28;20688;-84
2022/08/02 11:41:48;;;;;;;3.20;1.80;;;28.80;18.20;;;;;;5036678;28;20233;-84
2022/08/02 11:44:15;;;;;;;3.15;1.80;;;28.90;21.70;;;;;;5039469;28;20202;-85
2022/08/02 11:46:42;;;;;;;2.72;1.80;;;28.80;20.70;;;;;;5038726;28;20202;-84
2022/08/02 11:49:15;;;;;;;1.60;1.50;;;28.40;18.80;;;;;;5038817;28;20683;-84
2022/08/02 11:51:53;;;;;;;1.50;1.40;;;28.10;20.10;;;;;;5034654;28;20194;-84
2022/08/02 11:54:29;;;;;;;2.08;1.88;;;28.30;17.30;;;;;;5039001;28;20230;-83
2022/08/02 11:57:12;;;;;;;2.17;1.40;;;28.40;17.90;;;;;;5037059;28;20205;-84
2022/08/02 11:59:40;;;;;;;2.65;1.38;;;28.80;16.00;;;;;;5038126;28;20202;-83
2022/08/02 12:02:08;;;;;;;1.58;1.48;;;28.90;16.80;;;;;;5036968;28;20202;-84
2022/08/02 12:04:37;;;;;;;1.60;1.50;;;28.90;16.70;;;;;;5038915;28;20232;-84
2022/08/02 12:07:05;;;;;;;1.50;1.40;;;28.80;16.00;;;;;;5038523;28;20198;-84
2022/08/02 12:09:34;;;;;;;2.05;1.30;;;28.80;15.80;;;;;;5038447;28;20198;-84
2022/08/02 12:12:03;;;;;;;1.55;1.40;;;29.00;16.20;;;;;;5034897;28;20194;-84
2022/08/02 12:14:31;;;;;;;2.72;2.20;;;29.30;18.60;;;;;;5036698;28;20218;-86
2022/08/02 12:19:45;;;;;;;1.38;1.27;;;29.50;16.40;;;;;;5032765;28;20256;-87
2022/08/02 12:22:16;;;;;;;5.68;3.03;;;29.60;15.30;;;;;;5032307;28;20243;-86
2022/08/02 12:24:52;;;;;;;3.05;2.17;;;29.70;15.00;;;;;;5032261;28;20206;-86
2022/08/02 12:27:29;;;;;;;1.55;1.45;;;29.50;14.50;;;;;;5036820;28;20206;-85
2022/08/02 12:30:01;;;;;;;2.03;1.20;;;29.40;15.20;;;;;;5038371;28;20197;-84
2022/08/02 12:32:28;;;;;;;3.42;1.50;;;29.30;16.30;;;;;;5035071;28;20226;-84
2022/08/02 12:35:07;;;;;;;1.30;1.20;;;29.20;17.10;;;;;;5038393;28;20229;-85
2022/08/02 12:37:34;;;;;;;1.60;1.25;;;29.10;16.20;;;;;;5037203;28;20205;-84
2022/08/02 12:40:24;;;;;;;1.60;1.48;;;29.10;16.20;;;;;;5038343;28;20210;-84
2022/08/02 12:42:54;;;;;;;2.83;1.63;;;29.10;16.30;;;;;;5030216;28;20323;-84
2022/08/02 12:45:21;;;;;;;1.58;1.48;;;28.90;16.10;;;;;;5038136;28;20210;-85
2022/08/02 12:47:50;;;;;;;2.25;1.50;;;28.80;16.00;;;;;;5032756;28;20229;-85
2022/08/02 12:50:20;;;;;;;3.42;1.52;;;28.50;15.90;;;;;;5024526;28;20225;-85
2022/08/02 12:52:47;;;;;;;2.20;1.52;;;28.10;17.40;;;;;;5037186;28;20561;-84
2022/08/02 12:55:17;;;;;;;1.40;1.30;;;27.80;18.10;;;;;;5036598;28;20218;-85
2022/08/02 12:57:52;;;;;;;1.30;1.20;;;27.30;18.40;;;;;;5036059;28;20660;-85
2022/08/02 13:00:24;;;;;;;1.48;1.25;;;27.00;17.70;;;;;;5023212;28;20662;-86
2022/08/02 13:02:58;;;;;;;1.45;1.35;;;26.70;18.30;;;;;;5028561;28;20596;-86
2022/08/02 13:05:28;;;;;;;1.40;1.20;;;27.00;18.50;;;;;;5035223;28;20240;-86
2022/08/02 13:07:56;;;;;;;1.25;1.13;;;27.30;18.30;;;;;;5033498;28;20317;-86
2022/08/02 13:10:24;;;;;;;1.00;1.00;;;27.80;15.50;;;;;;5032643;28;20213;-86
2022/08/02 13:12:52;;;;;;;1.67;1.23;;;28.20;15.70;;;;;;5031791;28;20210;-86